Time;durP1;ratioP1;P1;durP2;ratioP2;P2;SDS_P1;SDS_P2;PMS_P1;PMS_P2;Temp;Humidity;BMP_temperature;BMP_pressure;BME280_temperature;BME280_humidity;BME280_pressure;Samples;Min_cycle;Max_cycle;Signal;HPM_P1;HPM_P2
2022/01/02 00:04:23;;;;;;;0.00;0.00;;;9.00;99.90;;;;;;10263415;28;20038;-85
2022/01/02 00:09:35;;;;;;;0.20;0.20;;;9.00;99.90;;;;;;10243990;29;20038;-87
2022/01/02 00:14:41;;;;;;;0.37;0.37;;;9.00;99.90;;;;;;10209316;29;20039;-85
2022/01/02 00:19:46;;;;;;;0.00;0.00;;;9.00;99.90;;;;;;10242751;29;20074;-87
2022/01/02 00:24:47;;;;;;;0.53;0.53;;;9.00;99.90;;;;;;10246647;28;20062;-87
2022/01/02 00:29:49;;;;;;;0.10;0.10;;;9.00;99.90;;;;;;10238154;29;20443;-86
2022/01/02 00:34:52;;;;;;;0.00;0.00;;;9.00;99.90;;;;;;10228999;28;20726;-86
2022/01/02 00:39:53;;;;;;;0.67;0.67;;;9.00;99.90;;;;;;10230101;28;20057;-86
2022/01/02 00:45:02;;;;;;;0.20;0.20;;;9.00;99.90;;;;;;10244954;29;20037;-87
2022/01/02 00:50:19;;;;;;;0.00;0.00;;;8.90;99.90;;;;;;10239938;29;20039;-86
2022/01/02 00:55:22;;;;;;;0.30;0.30;;;9.00;99.90;;;;;;10230398;29;20039;-85
2022/01/02 01:00:23;;;;;;;0.00;0.00;;;8.90;99.90;;;;;;10237345;29;20051;-86
2022/01/02 01:05:36;;;;;;;0.27;0.27;;;8.90;99.90;;;;;;10228872;29;20031;-87
2022/01/02 01:10:39;;;;;;;0.00;0.00;;;9.00;99.90;;;;;;10232876;29;20134;-86
2022/01/02 01:15:41;;;;;;;0.00;0.00;;;8.90;99.90;;;;;;10193869;29;20122;-86
2022/01/02 01:20:44;;;;;;;0.30;0.30;;;8.90;99.90;;;;;;10229407;29;20043;-86
2022/01/02 01:25:48;;;;;;;1.93;1.50;;;8.90;99.90;;;;;;10205666;29;20087;-91
2022/01/02 01:30:49;;;;;;;0.00;0.00;;;8.90;99.90;;;;;;10217931;29;20048;-86
2022/01/02 01:35:50;;;;;;;0.23;0.23;;;8.90;99.90;;;;;;10190051;29;20098;-88
2022/01/02 01:41:17;;;;;;;3.00;1.33;;;8.90;99.90;;;;;;10212284;29;20402;-88
2022/01/02 01:46:18;;;;;;;0.57;0.57;;;8.90;99.90;;;;;;10230056;28;20050;-85
2022/01/02 01:51:19;;;;;;;0.00;0.00;;;8.90;99.90;;;;;;10228209;29;20019;-86
2022/01/02 01:56:20;;;;;;;0.00;0.00;;;8.90;99.90;;;;;;10212595;29;20566;-86
2022/01/02 02:01:21;;;;;;;0.00;0.00;;;8.90;99.90;;;;;;10225539;29;20043;-87
2022/01/02 02:06:21;;;;;;;0.07;0.07;;;8.80;99.90;;;;;;10220630;29;20801;-86
2022/01/02 02:11:23;;;;;;;0.70;0.70;;;8.80;99.90;;;;;;10245751;29;20035;-87
2022/01/02 02:16:26;;;;;;;0.00;0.00;;;8.80;99.90;;;;;;10223668;29;20377;-87
2022/01/02 02:21:34;;;;;;;0.73;0.30;;;8.80;99.90;;;;;;10244912;29;20118;-86
2022/01/02 02:26:37;;;;;;;2.73;2.20;;;8.80;99.90;;;;;;10223981;29;20031;-86
2022/01/02 02:31:38;;;;;;;0.63;0.63;;;8.80;99.90;;;;;;10219461;29;20608;-85
2022/01/02 02:36:39;;;;;;;1.03;1.03;;;8.80;99.90;;;;;;10226829;29;20059;-86
2022/01/02 02:41:42;;;;;;;0.30;0.30;;;8.80;99.90;;;;;;10236960;29;20043;-86
2022/01/02 02:52:09;;;;;;;1.70;1.60;;;8.80;99.90;;;;;;10242616;29;20043;-87
2022/01/02 02:57:14;;;;;;;0.43;0.43;;;8.80;99.90;;;;;;10228429;29;20062;-87
2022/01/02 03:02:14;;;;;;;0.70;0.70;;;8.80;99.90;;;;;;10250517;29;20539;-87
2022/01/02 03:07:15;;;;;;;1.07;1.07;;;8.80;99.90;;;;;;10221077;29;20035;-86
2022/01/02 03:12:16;;;;;;;0.00;0.00;;;8.80;99.90;;;;;;10212631;29;20039;-86
2022/01/02 03:17:17;;;;;;;1.73;1.63;;;8.80;99.90;;;;;;10199657;29;20047;-87
2022/01/02 03:22:18;;;;;;;2.67;1.10;;;8.80;99.90;;;;;;10222733;29;20042;-87
2022/01/02 03:27:18;;;;;;;0.77;0.77;;;8.80;99.90;;;;;;10216196;29;20055;-90
2022/01/02 03:32:19;;;;;;;0.10;0.10;;;8.80;99.90;;;;;;10226848;29;20066;-89
2022/01/02 03:37:20;;;;;;;1.67;1.23;;;8.80;99.90;;;;;;10234042;29;20110;-87
2022/01/02 03:42:21;;;;;;;2.70;1.83;;;8.80;99.90;;;;;;10194028;29;20032;-87
2022/01/02 03:47:22;;;;;;;1.50;1.27;;;8.80;99.90;;;;;;10220200;29;20472;-87
2022/01/02 03:52:22;;;;;;;0.47;0.47;;;8.80;99.90;;;;;;10224714;29;20045;-86
2022/01/02 03:57:23;;;;;;;0.50;0.50;;;8.80;99.90;;;;;;10229785;29;20135;-86
2022/01/02 04:02:24;;;;;;;1.03;0.40;;;8.70;99.90;;;;;;10208226;29;20032;-88
2022/01/02 04:07:25;;;;;;;0.10;0.10;;;8.80;99.90;;;;;;10202713;29;20027;-87
2022/01/02 04:12:25;;;;;;;0.00;0.00;;;8.70;99.90;;;;;;10215903;29;20043;-86
2022/01/02 04:17:26;;;;;;;0.20;0.20;;;8.70;99.90;;;;;;10226863;29;20039;-87
2022/01/02 04:22:27;;;;;;;0.47;0.47;;;8.70;99.90;;;;;;10217630;29;20400;-87
2022/01/02 04:27:28;;;;;;;0.00;0.00;;;8.70;99.90;;;;;;10226237;29;20028;-87
2022/01/02 04:32:29;;;;;;;0.30;0.30;;;8.70;99.90;;;;;;10237006;29;20052;-86
2022/01/02 04:37:31;;;;;;;0.30;0.30;;;8.70;99.90;;;;;;10210793;29;20052;-87
2022/01/02 04:42:32;;;;;;;0.00;0.00;;;8.60;99.90;;;;;;10211631;29;20032;-86
2022/01/02 04:47:32;;;;;;;0.10;0.10;;;8.60;99.90;;;;;;10209752;29;20031;-87
2022/01/02 04:52:33;;;;;;;0.10;0.10;;;8.50;99.90;;;;;;10227886;29;20586;-87
2022/01/02 04:57:34;;;;;;;0.10;0.10;;;8.50;99.90;;;;;;10208876;29;20503;-87
2022/01/02 05:02:35;;;;;;;0.10;0.10;;;8.50;99.90;;;;;;10212606;29;20027;-86
2022/01/02 05:07:36;;;;;;;1.07;0.93;;;8.50;99.90;;;;;;10218467;29;20109;-86
2022/01/02 05:12:36;;;;;;;1.30;1.20;;;8.40;99.90;;;;;;10195666;29;20044;-84
2022/01/02 05:17:37;;;;;;;9.10;2.67;;;8.40;99.90;;;;;;10220223;28;20138;-86
2022/01/02 05:22:38;;;;;;;0.00;0.00;;;8.30;99.90;;;;;;10210347;29;20531;-86
2022/01/02 05:27:39;;;;;;;0.50;0.50;;;8.20;99.90;;;;;;10194615;29;20035;-87
2022/01/02 05:32:39;;;;;;;0.43;0.43;;;8.20;99.90;;;;;;10213165;29;20058;-86
2022/01/02 05:37:40;;;;;;;0.00;0.00;;;8.10;99.90;;;;;;10228366;29;20074;-87
2022/01/02 05:42:41;;;;;;;3.53;0.87;;;8.00;99.90;;;;;;10211301;29;20053;-85
2022/01/02 05:47:41;;;;;;;0.00;0.00;;;7.90;99.90;;;;;;10224173;29;20456;-86
2022/01/02 05:52:42;;;;;;;0.00;0.00;;;7.80;99.90;;;;;;10215943;29;20060;-88
2022/01/02 05:57:43;;;;;;;0.40;0.40;;;7.70;99.90;;;;;;10191766;29;20408;-89
2022/01/02 06:02:43;;;;;;;2.10;1.97;;;7.80;99.90;;;;;;10216954;29;20065;-87
2022/01/02 06:07:44;;;;;;;1.17;0.80;;;7.70;99.90;;;;;;10214332;29;20035;-87
2022/01/02 06:12:45;;;;;;;0.03;0.03;;;7.70;99.90;;;;;;10217329;29;20051;-88
2022/01/02 06:17:46;;;;;;;1.90;0.37;;;7.70;99.90;;;;;;10213902;29;20035;-86
2022/01/02 06:22:46;;;;;;;1.23;0.87;;;7.60;99.90;;;;;;10231721;29;20093;-89
2022/01/02 06:27:48;;;;;;;1.50;1.40;;;7.60;99.90;;;;;;10251709;29;20027;-88
2022/01/02 06:32:55;;;;;;;0.10;0.10;;;7.50;99.90;;;;;;10235229;29;20047;-89
2022/01/02 06:37:56;;;;;;;1.50;1.40;;;7.40;99.90;;;;;;10213435;29;20057;-87
2022/01/02 06:42:56;;;;;;;2.83;2.57;;;7.40;99.90;;;;;;10214313;29;20486;-87
2022/01/02 06:47:57;;;;;;;0.00;0.00;;;7.40;99.90;;;;;;10214520;29;20047;-87
2022/01/02 06:52:58;;;;;;;0.10;0.10;;;7.30;99.90;;;;;;10195971;29;20054;-87
2022/01/02 06:57:59;;;;;;;0.00;0.00;;;7.30;99.90;;;;;;10212816;29;20040;-86
2022/01/02 07:02:59;;;;;;;0.07;0.07;;;7.20;99.90;;;;;;10195392;29;20399;-87
2022/01/02 07:08:00;;;;;;;0.00;0.00;;;7.20;99.90;;;;;;10195750;29;20032;-87
2022/01/02 07:13:01;;;;;;;0.20;0.20;;;7.10;99.90;;;;;;10212562;29;20055;-87
2022/01/02 07:18:01;;;;;;;0.10;0.10;;;7.10;99.90;;;;;;10216267;29;20047;-87
2022/01/02 07:23:02;;;;;;;0.23;0.23;;;7.10;99.90;;;;;;10251230;29;20038;-87
2022/01/02 07:28:03;;;;;;;0.27;0.27;;;7.10;99.90;;;;;;10234295;29;20027;-87
2022/01/02 07:33:03;;;;;;;0.20;0.20;;;7.10;99.90;;;;;;10230680;28;20118;-86
2022/01/02 07:38:04;;;;;;;0.00;0.00;;;7.10;99.90;;;;;;10240184;29;20063;-88
2022/01/02 07:43:05;;;;;;;0.10;0.10;;;7.10;99.90;;;;;;10210854;29;20094;-87
2022/01/02 07:48:06;;;;;;;0.77;0.77;;;7.20;99.90;;;;;;10225514;29;20034;-85
2022/01/02 07:53:07;;;;;;;0.10;0.10;;;7.20;99.90;;;;;;10233841;29;20038;-85
2022/01/02 07:58:07;;;;;;;1.40;1.00;;;7.30;99.90;;;;;;10235710;29;20043;-87
2022/01/02 08:03:08;;;;;;;3.57;3.30;;;7.40;99.90;;;;;;10194295;29;20027;-90
2022/01/02 08:08:09;;;;;;;4.17;2.13;;;7.40;99.90;;;;;;10213037;29;20031;-87
2022/01/02 08:13:10;;;;;;;0.17;0.17;;;7.50;99.90;;;;;;10197473;29;20459;-89
2022/01/02 08:18:14;;;;;;;0.87;0.87;;;7.50;99.90;;;;;;10210232;29;20034;-86
2022/01/02 08:23:15;;;;;;;1.17;0.90;;;7.50;99.90;;;;;;10209046;29;20038;-86
2022/01/02 08:28:17;;;;;;;1.67;1.53;;;7.50;99.90;;;;;;10240921;29;20046;-86
2022/01/02 08:33:18;;;;;;;4.23;3.27;;;7.40;99.90;;;;;;10208038;29;20048;-86
2022/01/02 08:38:19;;;;;;;4.33;3.50;;;7.40;99.90;;;;;;10247458;29;20491;-86
2022/01/02 08:43:20;;;;;;;1.37;1.37;;;7.50;99.90;;;;;;10248177;28;20082;-86
2022/01/02 08:48:20;;;;;;;4.60;3.57;;;7.60;99.90;;;;;;10234053;29;20059;-86
2022/01/02 08:53:21;;;;;;;7.33;4.43;;;7.70;99.90;;;;;;10201732;29;20035;-87
2022/01/02 08:58:22;;;;;;;0.80;0.80;;;7.90;99.90;;;;;;10230363;29;20035;-86
2022/01/02 09:03:23;;;;;;;1.10;1.10;;;8.00;99.90;;;;;;10209359;29;20054;-87
2022/01/02 09:08:23;;;;;;;4.30;3.93;;;8.10;99.90;;;;;;10225601;29;20053;-87
2022/01/02 09:13:26;;;;;;;1.87;1.70;;;8.10;99.90;;;;;;10213806;29;20035;-86
2022/01/02 09:18:27;;;;;;;4.27;3.90;;;8.20;99.90;;;;;;10214751;29;20442;-86
2022/01/02 09:23:28;;;;;;;1.40;1.30;;;8.30;99.90;;;;;;10243072;29;20066;-84
2022/01/02 09:28:28;;;;;;;5.03;4.53;;;8.30;99.90;;;;;;10239494;29;20034;-87
2022/01/02 09:33:29;;;;;;;0.87;0.87;;;8.40;99.90;;;;;;10222371;28;20037;-86
2022/01/02 09:38:30;;;;;;;3.27;3.07;;;8.50;99.90;;;;;;10262587;28;20452;-87
2022/01/02 09:43:31;;;;;;;0.20;0.20;;;8.50;99.90;;;;;;10229486;29;20387;-84
2022/01/02 09:48:31;;;;;;;1.23;1.13;;;8.50;99.90;;;;;;10244788;29;20031;-87
2022/01/02 09:53:32;;;;;;;0.57;0.57;;;8.60;99.90;;;;;;10227845;29;20051;-85
2022/01/02 09:58:34;;;;;;;1.10;0.77;;;8.70;99.90;;;;;;10212215;29;20167;-88
2022/01/02 10:03:43;;;;;;;2.67;2.53;;;8.90;99.90;;;;;;10198120;29;20038;-87
2022/01/02 10:08:44;;;;;;;0.87;0.87;;;9.00;99.90;;;;;;10214869;29;20039;-86
2022/01/02 10:13:49;;;;;;;0.97;0.93;;;9.10;99.90;;;;;;10219851;29;20050;-85
2022/01/02 10:18:52;;;;;;;2.00;1.87;;;9.20;99.90;;;;;;10254616;29;20050;-87
2022/01/02 10:24:13;;;;;;;1.07;1.07;;;9.20;99.90;;;;;;10234741;29;20035;-86
2022/01/02 10:29:14;;;;;;;0.90;0.90;;;9.10;99.90;;;;;;10248137;29;20031;-88
2022/01/02 10:34:15;;;;;;;0.67;0.67;;;9.10;99.90;;;;;;10251274;29;20460;-86
2022/01/02 10:39:20;;;;;;;0.20;0.20;;;9.20;99.90;;;;;;10249787;28;20047;-88
2022/01/02 10:44:31;;;;;;;6.70;2.27;;;9.20;99.90;;;;;;10250948;29;20087;-86
2022/01/02 10:50:20;;;;;;;1.13;1.13;;;9.30;99.90;;;;;;10231296;29;20569;-88
2022/01/02 10:55:23;;;;;;;1.40;1.30;;;9.30;99.90;;;;;;10230457;29;20035;-86
2022/01/02 11:00:26;;;;;;;0.73;0.73;;;9.40;99.90;;;;;;10251670;29;20093;-86
2022/01/02 11:05:28;;;;;;;1.27;1.27;;;9.50;99.90;;;;;;10251786;29;20475;-85
2022/01/02 11:10:37;;;;;;;0.40;0.40;;;9.50;99.90;;;;;;10233194;29;20032;-87
2022/01/02 11:21:46;;;;;;;0.40;0.40;;;9.60;99.90;;;;;;10243216;29;20553;-87
2022/01/02 11:26:59;;;;;;;0.97;0.97;;;9.60;99.90;;;;;;10236674;29;20066;-87
2022/01/02 11:32:11;;;;;;;2.00;1.90;;;9.70;99.90;;;;;;10226917;29;20024;-87
2022/01/02 11:43:49;;;;;;;0.00;0.00;;;9.80;99.90;;;;;;10217949;29;20035;-87
2022/01/02 11:49:15;;;;;;;1.13;0.63;;;9.80;99.90;;;;;;10226869;29;20604;-88
2022/01/02 11:55:02;;;;;;;2.22;2.05;;;9.80;99.90;;;;;;10197008;28;20100;-88
2022/01/02 12:00:04;;;;;;;2.38;2.17;;;9.90;99.90;;;;;;10233753;28;20443;-90
2022/01/02 12:05:14;;;;;;;0.00;0.00;;;10.00;99.90;;;;;;10219678;29;20131;-90
2022/01/02 12:15:15;;;;;;;0.95;0.95;;;10.30;99.90;;;;;;10242251;29;20047;-91
2022/01/02 12:20:16;;;;;;;1.65;0.88;;;10.40;99.90;;;;;;10221913;28;20090;-90
2022/01/02 12:25:23;;;;;;;3.03;2.40;;;10.40;99.90;;;;;;10206620;29;20411;-88
2022/01/02 12:30:51;;;;;;;0.52;0.52;;;10.40;99.90;;;;;;10209536;29;20526;-89
2022/01/02 12:36:24;;;;;;;0.85;0.85;;;10.30;99.90;;;;;;10223680;29;20052;-88
2022/01/02 12:41:48;;;;;;;0.03;0.03;;;10.20;99.90;;;;;;10219547;29;20047;-88
2022/01/02 12:47:12;;;;;;;0.00;0.00;;;10.20;99.90;;;;;;10203760;29;20511;-87
2022/01/02 12:52:15;;;;;;;0.22;0.22;;;10.10;99.90;;;;;;10190893;29;20036;-87
2022/01/02 12:57:17;;;;;;;5.95;1.25;;;10.10;99.90;;;;;;10199374;29;20047;-86
2022/01/02 13:02:23;;;;;;;1.05;0.82;;;10.10;99.90;;;;;;10225517;29;20064;-89
2022/01/02 13:07:32;;;;;;;1.90;1.33;;;10.00;99.90;;;;;;10193826;29;20044;-87
2022/01/02 13:12:35;;;;;;;1.15;1.08;;;10.00;99.90;;;;;;10210360;29;20039;-88
2022/01/02 13:17:42;;;;;;;0.50;0.30;;;10.00;99.90;;;;;;10213101;29;20039;-88
2022/01/02 13:22:52;;;;;;;1.65;1.17;;;10.00;99.90;;;;;;10194057;29;20039;-87
2022/01/02 13:28:00;;;;;;;0.73;0.73;;;9.90;99.90;;;;;;10211995;29;20054;-87
2022/01/02 13:33:02;;;;;;;0.32;0.32;;;9.80;99.90;;;;;;10203846;29;20023;-87
2022/01/02 13:38:04;;;;;;;0.00;0.00;;;9.80;99.90;;;;;;10173094;29;1207178;-91
2022/01/02 13:43:17;;;;;;;4.85;2.22;;;9.70;99.90;;;;;;10210108;29;20035;-87
2022/01/02 13:48:22;;;;;;;1.40;1.30;;;9.70;99.90;;;;;;10222960;29;20028;-88
2022/01/02 13:53:32;;;;;;;0.20;0.20;;;9.70;99.90;;;;;;10201292;29;20064;-89
2022/01/02 13:58:38;;;;;;;0.20;0.20;;;9.60;99.90;;;;;;10231956;29;20043;-87
2022/01/02 14:03:41;;;;;;;1.35;1.25;;;9.60;99.90;;;;;;10218369;29;20036;-88
2022/01/02 14:08:46;;;;;;;0.00;0.00;;;9.50;99.90;;;;;;10235080;29;20551;-87
2022/01/02 14:13:51;;;;;;;6.10;2.75;;;9.50;99.90;;;;;;10206402;29;20048;-88
2022/01/02 14:18:52;;;;;;;2.28;2.10;;;9.50;99.90;;;;;;10217691;29;20033;-88
2022/01/02 14:23:52;;;;;;;0.83;0.80;;;9.40;99.90;;;;;;10199752;29;20031;-85
2022/01/02 14:28:54;;;;;;;2.67;2.47;;;9.40;99.90;;;;;;10229623;29;20028;-89
2022/01/02 14:33:55;;;;;;;2.80;2.60;;;9.30;99.90;;;;;;10203287;29;20077;-90
2022/01/02 14:38:58;;;;;;;0.57;0.57;;;9.20;99.90;;;;;;10218760;29;20065;-88
2022/01/02 14:44:02;;;;;;;0.90;0.90;;;9.30;99.90;;;;;;10204576;29;20031;-89
2022/01/02 14:49:03;;;;;;;1.80;1.20;;;9.20;99.90;;;;;;10223926;29;20031;-88
2022/01/02 14:54:05;;;;;;;0.63;0.63;;;9.20;99.90;;;;;;10229245;29;20043;-88
2022/01/02 14:59:32;;;;;;;1.90;1.17;;;9.20;99.90;;;;;;10211045;29;20065;-91
2022/01/02 15:04:33;;;;;;;0.00;0.00;;;9.10;99.90;;;;;;10234286;29;20043;-88
2022/01/02 15:09:51;;;;;;;1.50;1.40;;;9.10;99.90;;;;;;10230687;29;20087;-89
2022/01/02 15:15:00;;;;;;;0.47;0.47;;;9.10;99.90;;;;;;10236549;28;20034;-90
2022/01/02 15:20:12;;;;;;;0.83;0.83;;;9.10;99.90;;;;;;10222683;29;20527;-90
2022/01/02 15:25:19;;;;;;;0.33;0.33;;;9.00;99.90;;;;;;10225348;29;20035;-89
2022/01/02 15:30:32;;;;;;;4.13;1.80;;;9.00;99.90;;;;;;10245267;28;20019;-90
2022/01/02 15:35:56;;;;;;;2.50;1.90;;;9.00;99.90;;;;;;10226106;28;20055;-90
2022/01/02 15:41:31;;;;;;;0.97;0.97;;;9.00;99.90;;;;;;10204052;29;20528;-90
2022/01/02 15:46:35;;;;;;;1.77;1.67;;;9.00;99.90;;;;;;10205364;29;20050;-89
2022/01/02 15:51:36;;;;;;;1.60;1.00;;;9.00;99.90;;;;;;10194934;29;20055;-89
2022/01/02 15:56:37;;;;;;;2.83;1.80;;;9.00;99.90;;;;;;10236413;28;20126;-91
2022/01/02 16:01:41;;;;;;;1.73;1.63;;;9.00;99.90;;;;;;10224099;28;20036;-89
2022/01/02 16:06:52;;;;;;;0.83;0.83;;;9.00;99.90;;;;;;10250290;28;20035;-89
2022/01/02 16:11:52;;;;;;;2.87;2.67;;;8.90;99.90;;;;;;10231613;28;20587;-89
2022/01/02 16:16:56;;;;;;;0.00;0.00;;;8.90;99.90;;;;;;10204952;29;20341;-89
2022/01/02 16:21:58;;;;;;;6.17;2.40;;;8.90;99.90;;;;;;10197069;29;20056;-87
2022/01/02 16:26:59;;;;;;;7.30;2.60;;;8.90;99.90;;;;;;10210553;29;20557;-89
2022/01/02 16:32:08;;;;;;;0.40;0.40;;;8.90;99.90;;;;;;10205814;29;20028;-87
2022/01/02 16:37:12;;;;;;;0.50;0.50;;;8.90;99.90;;;;;;10222731;29;20545;-90
2022/01/02 16:42:24;;;;;;;2.57;1.40;;;8.90;99.90;;;;;;10232903;28;20063;-90
2022/01/02 16:52:49;;;;;;;4.30;2.37;;;8.90;99.90;;;;;;10228114;29;20099;-87
2022/01/02 16:57:51;;;;;;;1.20;1.13;;;8.80;99.90;;;;;;10236843;29;20657;-89
2022/01/02 17:02:55;;;;;;;4.43;2.77;;;8.80;99.90;;;;;;10207963;29;20035;-89
2022/01/02 17:07:57;;;;;;;0.77;0.77;;;8.80;99.90;;;;;;10191971;29;20118;-89
2022/01/02 17:12:58;;;;;;;1.47;1.03;;;8.80;99.90;;;;;;10219438;29;20371;-91
2022/01/02 17:18:00;;;;;;;0.50;0.50;;;8.80;99.90;;;;;;10205376;29;20070;-88
2022/01/02 17:23:01;;;;;;;5.40;3.47;;;8.80;99.90;;;;;;10239313;29;20037;-89
2022/01/02 17:28:34;;;;;;;1.20;1.20;;;8.70;99.90;;;;;;10212324;29;20024;-91
2022/01/02 17:34:00;;;;;;;1.23;1.13;;;8.70;99.90;;;;;;10197594;29;20047;-92
2022/01/02 17:39:03;;;;;;;3.88;3.50;;;8.70;99.90;;;;;;10189812;29;20057;-89
2022/01/02 17:44:15;;;;;;;0.53;0.53;;;8.70;99.90;;;;;;10225517;29;20038;-91
2022/01/02 17:49:19;;;;;;;2.03;1.80;;;8.70;99.90;;;;;;10221222;29;20375;-92
2022/01/02 17:54:21;;;;;;;2.93;2.47;;;8.70;99.90;;;;;;10241524;29;20475;-90
2022/01/02 17:59:25;;;;;;;1.80;1.70;;;8.70;99.90;;;;;;10225921;29;20043;-89
2022/01/02 18:04:26;;;;;;;1.50;1.40;;;8.70;99.90;;;;;;10203331;29;20028;-89
2022/01/02 18:21:46;;;;;;;;;;;;;;;;;;;;;
2022/01/02 18:27:06;;;;;;;1.13;1.13;;;8.80;99.90;;;;;;10151943;29;20051;-89
2022/01/02 18:32:08;;;;;;;3.77;2.30;;;8.80;99.90;;;;;;10219653;29;20411;-92
2022/01/02 18:37:09;;;;;;;4.30;2.57;;;8.80;99.90;;;;;;10224746;28;20404;-87
2022/01/02 18:42:09;;;;;;;14.90;4.33;;;8.80;99.90;;;;;;10245785;29;20035;-87
2022/01/02 18:47:10;;;;;;;0.20;0.20;;;8.80;99.90;;;;;;10215772;29;20377;-87
2022/01/02 18:52:11;;;;;;;8.27;3.63;;;8.80;99.90;;;;;;10222759;29;20665;-86
2022/01/02 18:57:12;;;;;;;0.67;0.67;;;8.90;99.90;;;;;;10238604;29;20029;-87
2022/01/02 19:02:12;;;;;;;1.30;1.30;;;8.90;99.90;;;;;;10250367;29;20122;-88
2022/01/02 19:08:11;;;;;;;0.20;0.20;;;8.90;99.90;;;;;;10197985;29;20043;-87
2022/01/02 19:13:11;;;;;;;0.50;0.50;;;8.90;99.90;;;;;;10223462;29;20039;-86
2022/01/02 19:18:12;;;;;;;0.93;0.93;;;8.90;99.90;;;;;;10227726;29;20035;-86
2022/01/02 19:23:13;;;;;;;0.57;0.57;;;8.80;99.90;;;;;;10210459;29;20039;-87
2022/01/02 19:28:13;;;;;;;0.50;0.50;;;8.80;99.90;;;;;;10212068;29;20122;-87
2022/01/02 19:39:15;;;;;;;0.63;0.63;;;8.90;99.90;;;;;;10217083;29;20046;-87
2022/01/02 19:44:17;;;;;;;2.23;1.77;;;9.00;99.90;;;;;;10215688;29;20784;-87
2022/01/02 19:49:18;;;;;;;0.43;0.43;;;8.90;99.90;;;;;;10217061;29;20038;-86
2022/01/02 19:54:21;;;;;;;3.60;1.10;;;8.90;99.90;;;;;;10218930;29;20035;-87
2022/01/02 19:59:24;;;;;;;0.87;0.77;;;8.90;99.90;;;;;;10221217;29;20042;-87
2022/01/02 20:04:25;;;;;;;2.23;1.70;;;8.70;99.90;;;;;;10229928;29;20055;-85
2022/01/02 20:09:26;;;;;;;6.80;3.70;;;8.70;99.90;;;;;;10212293;29;20024;-87
2022/01/02 20:14:27;;;;;;;3.37;2.17;;;8.70;99.90;;;;;;10206970;29;20197;-88
2022/01/02 20:19:28;;;;;;;6.37;4.37;;;8.60;99.90;;;;;;10228937;29;20168;-88
2022/01/02 20:24:29;;;;;;;10.43;5.60;;;8.60;99.90;;;;;;10249043;29;20031;-87
2022/01/02 20:29:32;;;;;;;17.33;7.50;;;8.60;99.90;;;;;;10232736;29;20036;-87
2022/01/02 20:34:33;;;;;;;28.80;12.90;;;8.50;99.90;;;;;;10202639;29;20027;-87
2022/01/02 20:39:34;;;;;;;37.57;15.80;;;8.40;99.90;;;;;;10191102;29;20051;-89
2022/01/02 20:44:35;;;;;;;31.60;15.23;;;8.40;99.90;;;;;;10219943;29;20474;-88
2022/01/02 20:49:36;;;;;;;41.47;18.00;;;8.40;99.90;;;;;;10217781;29;20031;-88
2022/01/02 20:54:38;;;;;;;31.73;16.53;;;8.30;99.90;;;;;;10246329;29;20031;-87
2022/01/02 20:59:43;;;;;;;34.83;17.07;;;8.30;99.90;;;;;;10243718;29;20394;-87
2022/01/02 21:04:46;;;;;;;30.92;16.77;;;8.30;99.90;;;;;;10242206;29;20031;-89
2022/01/02 21:09:50;;;;;;;32.93;16.90;;;8.30;99.90;;;;;;10244230;29;20046;-87
2022/01/02 21:14:54;;;;;;;45.33;22.43;;;8.20;99.90;;;;;;10239096;29;20035;-89
2022/01/02 21:19:57;;;;;;;44.80;22.17;;;8.30;99.90;;;;;;10222711;29;20840;-88
2022/01/02 21:24:57;;;;;;;37.97;20.17;;;8.20;99.90;;;;;;10225090;29;20035;-89
2022/01/02 21:29:58;;;;;;;39.27;19.07;;;8.30;99.90;;;;;;10243447;29;20028;-88
2022/01/02 21:34:59;;;;;;;32.13;16.37;;;8.30;99.90;;;;;;10244512;29;20031;-87
2022/01/02 21:40:00;;;;;;;31.40;16.20;;;8.40;99.90;;;;;;10244523;29;20051;-87
2022/01/02 21:45:00;;;;;;;27.27;13.37;;;8.60;99.90;;;;;;10237455;29;20049;-87
2022/01/02 21:50:02;;;;;;;23.83;12.67;;;8.60;99.90;;;;;;10244018;29;20123;-86
2022/01/02 21:55:04;;;;;;;26.07;12.27;;;8.70;99.90;;;;;;10248827;28;20498;-89
2022/01/02 22:00:06;;;;;;;21.00;11.53;;;8.80;99.90;;;;;;10248335;28;20039;-88
2022/01/02 22:05:09;;;;;;;24.07;11.27;;;8.90;99.90;;;;;;10251025;29;20059;-88
2022/01/02 22:10:10;;;;;;;19.23;10.60;;;8.90;99.90;;;;;;10218591;29;20031;-88
2022/01/02 22:15:11;;;;;;;24.07;11.87;;;8.90;99.90;;;;;;10216175;29;20110;-88
2022/01/02 22:20:12;;;;;;;21.70;11.67;;;8.90;99.90;;;;;;10250450;29;20051;-88
2022/01/02 22:25:19;;;;;;;20.80;11.50;;;8.90;99.90;;;;;;10237161;29;20033;-88
2022/01/02 22:30:20;;;;;;;17.50;9.90;;;8.90;99.90;;;;;;10232483;29;20063;-90
2022/01/02 22:35:23;;;;;;;27.83;13.87;;;8.80;99.90;;;;;;10252729;29;20055;-87
2022/01/02 22:40:24;;;;;;;39.47;21.30;;;8.80;99.90;;;;;;10217076;29;20142;-87
2022/01/02 22:45:25;;;;;;;28.80;14.43;;;8.80;99.90;;;;;;10227668;29;20027;-89
2022/01/02 22:50:26;;;;;;;24.20;12.93;;;8.70;99.90;;;;;;10252877;29;20115;-87
2022/01/02 22:55:27;;;;;;;23.50;11.77;;;8.70;99.90;;;;;;10219725;29;20055;-89
2022/01/02 23:00:37;;;;;;;22.90;11.47;;;8.70;99.90;;;;;;10242191;29;20046;-87
2022/01/02 23:05:38;;;;;;;24.40;12.50;;;8.70;99.90;;;;;;10217579;29;20107;-88
2022/01/02 23:10:39;;;;;;;22.13;12.23;;;8.60;99.90;;;;;;10213965;29;20672;-86
2022/01/02 23:15:42;;;;;;;23.27;12.50;;;8.60;99.90;;;;;;10248456;29;20035;-88
2022/01/02 23:20:45;;;;;;;22.17;11.50;;;8.60;99.90;;;;;;10249843;29;20044;-87
2022/01/02 23:25:46;;;;;;;19.27;11.30;;;8.50;99.90;;;;;;10244598;29;20364;-88
2022/01/02 23:30:47;;;;;;;23.73;13.10;;;8.40;99.90;;;;;;10221842;29;20038;-89
2022/01/02 23:35:48;;;;;;;24.47;13.43;;;8.40;99.90;;;;;;10218841;29;20083;-89
2022/01/02 23:40:48;;;;;;;31.60;16.33;;;8.40;99.90;;;;;;10211969;29;20591;-88
2022/01/02 23:46:09;;;;;;;25.90;15.00;;;8.40;99.90;;;;;;10216877;29;20019;-89
2022/01/02 23:51:13;;;;;;;33.13;19.07;;;8.30;99.90;;;;;;10211235;29;20030;-89
2022/01/02 23:56:15;;;;;;;28.13;14.77;;;8.30;99.90;;;;;;10243144;29;20035;-88
